sensor_id;sensor_type;location;lat;lon;timestamp;P1;durP1;ratioP1;P2;durP2;ratioP2
67548;SDS011;54382;53.524;49.326;2022-08-19T00:01:49;17.08;;;1.90;;
67548;SDS011;54382;53.524;49.326;2022-08-19T00:04:18;4.60;;;1.25;;
67548;SDS011;54382;53.524;49.326;2022-08-19T00:06:48;9.32;;;2.00;;
67548;SDS011;54382;53.524;49.326;2022-08-19T00:09:15;10.48;;;1.48;;
67548;SDS011;54382;53.524;49.326;2022-08-19T00:11:44;12.35;;;1.83;;
67548;SDS011;54382;53.524;49.326;2022-08-19T00:14:15;8.30;;;1.55;;
67548;SDS011;54382;53.524;49.326;2022-08-19T00:16:43;9.48;;;1.52;;
67548;SDS011;54382;53.524;49.326;2022-08-19T00:19:13;5.97;;;1.45;;
67548;SDS011;54382;53.524;49.326;2022-08-19T00:21:41;9.55;;;1.40;;
67548;SDS011;54382;53.524;49.326;2022-08-19T00:24:09;6.90;;;1.80;;
67548;SDS011;54382;53.524;49.326;2022-08-19T00:26:38;11.57;;;2.17;;
67548;SDS011;54382;53.524;49.326;2022-08-19T00:29:06;19.08;;;1.83;;
67548;SDS011;54382;53.524;49.326;2022-08-19T00:31:35;5.43;;;1.75;;
67548;SDS011;54382;53.524;49.326;2022-08-19T00:34:02;5.28;;;1.65;;
67548;SDS011;54382;53.524;49.326;2022-08-19T00:36:29;8.40;;;1.42;;
67548;SDS011;54382;53.524;49.326;2022-08-19T00:38:57;13.18;;;2.33;;
67548;SDS011;54382;53.524;49.326;2022-08-19T00:41:25;9.27;;;1.83;;
67548;SDS011;54382;53.524;49.326;2022-08-19T00:44:05;5.28;;;1.70;;
67548;SDS011;54382;53.524;49.326;2022-08-19T00:46:34;6.45;;;1.80;;
67548;SDS011;54382;53.524;49.326;2022-08-19T00:49:09;8.70;;;1.52;;
67548;SDS011;54382;53.524;49.326;2022-08-19T00:52:02;12.15;;;1.98;;
67548;SDS011;54382;53.524;49.326;2022-08-19T00:54:35;12.73;;;2.05;;
67548;SDS011;54382;53.524;49.326;2022-08-19T00:57:04;7.03;;;1.77;;
67548;SDS011;54382;53.524;49.326;2022-08-19T00:59:39;15.20;;;2.40;;
67548;SDS011;54382;53.524;49.326;2022-08-19T01:02:07;14.93;;;2.75;;
67548;SDS011;54382;53.524;49.326;2022-08-19T01:04:34;11.00;;;1.85;;
67548;SDS011;54382;53.524;49.326;2022-08-19T01:07:01;14.02;;;3.47;;
67548;SDS011;54382;53.524;49.326;2022-08-19T01:09:28;25.12;;;3.05;;
67548;SDS011;54382;53.524;49.326;2022-08-19T01:11:55;8.95;;;2.85;;
67548;SDS011;54382;53.524;49.326;2022-08-19T01:14:23;17.48;;;3.12;;
67548;SDS011;54382;53.524;49.326;2022-08-19T01:16:50;11.07;;;2.80;;
67548;SDS011;54382;53.524;49.326;2022-08-19T01:19:30;16.05;;;2.92;;
67548;SDS011;54382;53.524;49.326;2022-08-19T01:22:08;18.95;;;3.45;;
67548;SDS011;54382;53.524;49.326;2022-08-19T01:25:00;23.73;;;3.17;;
67548;SDS011;54382;53.524;49.326;2022-08-19T01:27:36;17.25;;;3.45;;
67548;SDS011;54382;53.524;49.326;2022-08-19T01:30:08;20.75;;;3.62;;
67548;SDS011;54382;53.524;49.326;2022-08-19T01:32:38;15.25;;;3.17;;
67548;SDS011;54382;53.524;49.326;2022-08-19T01:35:05;23.20;;;3.90;;
67548;SDS011;54382;53.524;49.326;2022-08-19T01:37:46;17.12;;;2.95;;
67548;SDS011;54382;53.524;49.326;2022-08-19T01:40:17;16.65;;;3.65;;
67548;SDS011;54382;53.524;49.326;2022-08-19T01:42:49;30.62;;;3.28;;
67548;SDS011;54382;53.524;49.326;2022-08-19T01:45:16;17.17;;;3.33;;
67548;SDS011;54382;53.524;49.326;2022-08-19T01:47:45;19.45;;;3.33;;
67548;SDS011;54382;53.524;49.326;2022-08-19T01:50:12;20.10;;;3.12;;
67548;SDS011;54382;53.524;49.326;2022-08-19T01:52:39;23.38;;;3.58;;
67548;SDS011;54382;53.524;49.326;2022-08-19T01:55:09;23.35;;;3.22;;
67548;SDS011;54382;53.524;49.326;2022-08-19T01:57:40;19.08;;;3.62;;
67548;SDS011;54382;53.524;49.326;2022-08-19T02:00:14;24.25;;;3.35;;
67548;SDS011;54382;53.524;49.326;2022-08-19T02:02:43;21.65;;;3.53;;
67548;SDS011;54382;53.524;49.326;2022-08-19T02:05:10;10.18;;;2.42;;
67548;SDS011;54382;53.524;49.326;2022-08-19T02:07:38;19.35;;;3.25;;
67548;SDS011;54382;53.524;49.326;2022-08-19T02:10:07;21.83;;;3.58;;
67548;SDS011;54382;53.524;49.326;2022-08-19T02:12:41;18.33;;;3.80;;
67548;SDS011;54382;53.524;49.326;2022-08-19T02:15:09;20.92;;;3.60;;
67548;SDS011;54382;53.524;49.326;2022-08-19T02:17:35;26.45;;;3.65;;
67548;SDS011;54382;53.524;49.326;2022-08-19T02:20:02;28.87;;;3.40;;
67548;SDS011;54382;53.524;49.326;2022-08-19T02:22:31;18.15;;;4.20;;
67548;SDS011;54382;53.524;49.326;2022-08-19T02:24:58;17.37;;;3.83;;
67548;SDS011;54382;53.524;49.326;2022-08-19T02:27:25;18.02;;;3.83;;
67548;SDS011;54382;53.524;49.326;2022-08-19T02:29:52;15.43;;;3.60;;
67548;SDS011;54382;53.524;49.326;2022-08-19T02:32:18;11.57;;;2.53;;
67548;SDS011;54382;53.524;49.326;2022-08-19T02:34:46;11.10;;;2.35;;
67548;SDS011;54382;53.524;49.326;2022-08-19T02:37:13;12.50;;;2.45;;
67548;SDS011;54382;53.524;49.326;2022-08-19T02:39:59;10.02;;;1.90;;
67548;SDS011;54382;53.524;49.326;2022-08-19T02:42:26;11.32;;;1.80;;
67548;SDS011;54382;53.524;49.326;2022-08-19T02:44:52;6.15;;;1.42;;
67548;SDS011;54382;53.524;49.326;2022-08-19T02:47:21;5.90;;;1.27;;
67548;SDS011;54382;53.524;49.326;2022-08-19T02:49:48;8.63;;;1.20;;
67548;SDS011;54382;53.524;49.326;2022-08-19T02:52:15;8.63;;;1.55;;
67548;SDS011;54382;53.524;49.326;2022-08-19T02:54:42;3.75;;;1.15;;
67548;SDS011;54382;53.524;49.326;2022-08-19T02:57:09;10.18;;;1.23;;
67548;SDS011;54382;53.524;49.326;2022-08-19T02:59:36;8.10;;;1.85;;
67548;SDS011;54382;53.524;49.326;2022-08-19T03:02:03;3.72;;;1.55;;
67548;SDS011;54382;53.524;49.326;2022-08-19T03:04:29;9.18;;;1.83;;
67548;SDS011;54382;53.524;49.326;2022-08-19T03:06:56;4.22;;;0.90;;
67548;SDS011;54382;53.524;49.326;2022-08-19T03:09:22;13.52;;;2.50;;
67548;SDS011;54382;53.524;49.326;2022-08-19T03:11:49;9.73;;;1.20;;
67548;SDS011;54382;53.524;49.326;2022-08-19T03:14:16;9.82;;;1.15;;
67548;SDS011;54382;53.524;49.326;2022-08-19T03:16:47;1.80;;;0.68;;
67548;SDS011;54382;53.524;49.326;2022-08-19T03:19:17;10.15;;;1.50;;
67548;SDS011;54382;53.524;49.326;2022-08-19T03:21:46;5.78;;;1.27;;
67548;SDS011;54382;53.524;49.326;2022-08-19T03:24:14;3.90;;;0.68;;
67548;SDS011;54382;53.524;49.326;2022-08-19T03:26:43;5.93;;;1.50;;
67548;SDS011;54382;53.524;49.326;2022-08-19T03:29:13;19.62;;;1.60;;
67548;SDS011;54382;53.524;49.326;2022-08-19T03:31:42;5.82;;;0.82;;
67548;SDS011;54382;53.524;49.326;2022-08-19T03:34:13;6.55;;;1.50;;
67548;SDS011;54382;53.524;49.326;2022-08-19T03:36:46;5.65;;;1.15;;
67548;SDS011;54382;53.524;49.326;2022-08-19T03:39:13;11.07;;;1.30;;
67548;SDS011;54382;53.524;49.326;2022-08-19T03:41:42;8.38;;;2.20;;
67548;SDS011;54382;53.524;49.326;2022-08-19T03:44:09;8.02;;;1.40;;
67548;SDS011;54382;53.524;49.326;2022-08-19T03:46:36;7.72;;;1.50;;
67548;SDS011;54382;53.524;49.326;2022-08-19T03:49:04;14.10;;;1.50;;
67548;SDS011;54382;53.524;49.326;2022-08-19T03:51:35;6.40;;;1.40;;
67548;SDS011;54382;53.524;49.326;2022-08-19T03:54:06;8.43;;;1.60;;
67548;SDS011;54382;53.524;49.326;2022-08-19T03:56:36;5.80;;;1.15;;
67548;SDS011;54382;53.524;49.326;2022-08-19T03:59:05;4.20;;;1.15;;
67548;SDS011;54382;53.524;49.326;2022-08-19T04:01:38;9.50;;;2.05;;
67548;SDS011;54382;53.524;49.326;2022-08-19T04:04:05;6.75;;;1.60;;
67548;SDS011;54382;53.524;49.326;2022-08-19T04:06:32;5.50;;;1.45;;
67548;SDS011;54382;53.524;49.326;2022-08-19T04:09:03;7.97;;;1.10;;
67548;SDS011;54382;53.524;49.326;2022-08-19T04:11:34;11.45;;;1.75;;
67548;SDS011;54382;53.524;49.326;2022-08-19T04:14:12;18.50;;;1.65;;
67548;SDS011;54382;53.524;49.326;2022-08-19T04:16:43;6.72;;;1.40;;
67548;SDS011;54382;53.524;49.326;2022-08-19T04:19:12;6.62;;;2.10;;
67548;SDS011;54382;53.524;49.326;2022-08-19T04:21:42;14.93;;;1.40;;
67548;SDS011;54382;53.524;49.326;2022-08-19T04:24:12;10.57;;;2.20;;
67548;SDS011;54382;53.524;49.326;2022-08-19T04:26:39;6.32;;;1.62;;
67548;SDS011;54382;53.524;49.326;2022-08-19T04:29:08;20.42;;;2.35;;
67548;SDS011;54382;53.524;49.326;2022-08-19T04:31:44;17.92;;;2.28;;
67548;SDS011;54382;53.524;49.326;2022-08-19T04:34:12;14.63;;;2.15;;
67548;SDS011;54382;53.524;49.326;2022-08-19T04:36:42;38.85;;;3.15;;
67548;SDS011;54382;53.524;49.326;2022-08-19T04:39:12;22.80;;;2.92;;
67548;SDS011;54382;53.524;49.326;2022-08-19T04:41:43;26.08;;;3.55;;
67548;SDS011;54382;53.524;49.326;2022-08-19T04:44:32;9.40;;;2.00;;
67548;SDS011;54382;53.524;49.326;2022-08-19T04:47:01;14.57;;;2.37;;
67548;SDS011;54382;53.524;49.326;2022-08-19T04:49:32;8.50;;;1.50;;
67548;SDS011;54382;53.524;49.326;2022-08-19T04:51:59;9.02;;;1.30;;
67548;SDS011;54382;53.524;49.326;2022-08-19T04:54:26;10.35;;;1.80;;
67548;SDS011;54382;53.524;49.326;2022-08-19T04:56:53;3.35;;;1.40;;
67548;SDS011;54382;53.524;49.326;2022-08-19T04:59:20;5.85;;;1.10;;
67548;SDS011;54382;53.524;49.326;2022-08-19T05:01:47;11.50;;;1.70;;
67548;SDS011;54382;53.524;49.326;2022-08-19T05:04:15;8.48;;;1.40;;
67548;SDS011;54382;53.524;49.326;2022-08-19T05:06:45;9.68;;;1.80;;
67548;SDS011;54382;53.524;49.326;2022-08-19T05:09:14;15.75;;;1.62;;
67548;SDS011;54382;53.524;49.326;2022-08-19T05:11:42;4.50;;;0.95;;
67548;SDS011;54382;53.524;49.326;2022-08-19T05:14:09;9.00;;;1.08;;
67548;SDS011;54382;53.524;49.326;2022-08-19T05:16:40;27.00;;;1.80;;
67548;SDS011;54382;53.524;49.326;2022-08-19T05:19:07;18.05;;;1.90;;
67548;SDS011;54382;53.524;49.326;2022-08-19T05:21:53;10.18;;;1.33;;
67548;SDS011;54382;53.524;49.326;2022-08-19T05:24:38;8.95;;;2.08;;
67548;SDS011;54382;53.524;49.326;2022-08-19T05:27:05;2.60;;;0.82;;
67548;SDS011;54382;53.524;49.326;2022-08-19T05:29:32;3.17;;;1.05;;
67548;SDS011;54382;53.524;49.326;2022-08-19T05:32:00;14.38;;;1.70;;
67548;SDS011;54382;53.524;49.326;2022-08-19T05:34:30;13.52;;;1.20;;
67548;SDS011;54382;53.524;49.326;2022-08-19T05:36:58;11.68;;;1.35;;
67548;SDS011;54382;53.524;49.326;2022-08-19T05:39:28;2.95;;;1.17;;
67548;SDS011;54382;53.524;49.326;2022-08-19T05:41:59;7.95;;;1.30;;
67548;SDS011;54382;53.524;49.326;2022-08-19T05:44:33;8.48;;;0.75;;
67548;SDS011;54382;53.524;49.326;2022-08-19T05:47:04;13.85;;;1.48;;
67548;SDS011;54382;53.524;49.326;2022-08-19T05:49:36;13.70;;;1.65;;
67548;SDS011;54382;53.524;49.326;2022-08-19T05:52:04;11.02;;;1.65;;
67548;SDS011;54382;53.524;49.326;2022-08-19T05:54:39;6.85;;;1.52;;
67548;SDS011;54382;53.524;49.326;2022-08-19T05:59:34;12.43;;;1.65;;
67548;SDS011;54382;53.524;49.326;2022-08-19T06:02:02;10.85;;;1.98;;
67548;SDS011;54382;53.524;49.326;2022-08-19T06:04:30;11.93;;;1.62;;
67548;SDS011;54382;53.524;49.326;2022-08-19T06:06:57;14.55;;;2.22;;
67548;SDS011;54382;53.524;49.326;2022-08-19T06:09:24;8.98;;;1.50;;
67548;SDS011;54382;53.524;49.326;2022-08-19T06:11:52;9.35;;;1.80;;
67548;SDS011;54382;53.524;49.326;2022-08-19T06:14:26;14.87;;;1.40;;
67548;SDS011;54382;53.524;49.326;2022-08-19T06:16:56;22.50;;;2.00;;
67548;SDS011;54382;53.524;49.326;2022-08-19T06:19:27;11.77;;;1.77;;
67548;SDS011;54382;53.524;49.326;2022-08-19T06:21:55;6.97;;;1.20;;
67548;SDS011;54382;53.524;49.326;2022-08-19T06:24:25;7.18;;;1.35;;
67548;SDS011;54382;53.524;49.326;2022-08-19T06:26:54;8.75;;;1.05;;
67548;SDS011;54382;53.524;49.326;2022-08-19T06:29:23;6.00;;;1.33;;
67548;SDS011;54382;53.524;49.326;2022-08-19T06:31:52;9.82;;;1.70;;
67548;SDS011;54382;53.524;49.326;2022-08-19T06:34:25;7.78;;;1.75;;
67548;SDS011;54382;53.524;49.326;2022-08-19T06:36:54;22.65;;;2.25;;
67548;SDS011;54382;53.524;49.326;2022-08-19T06:39:25;8.85;;;1.62;;
67548;SDS011;54382;53.524;49.326;2022-08-19T06:41:56;11.05;;;1.58;;
67548;SDS011;54382;53.524;49.326;2022-08-19T06:44:27;14.18;;;1.80;;
67548;SDS011;54382;53.524;49.326;2022-08-19T06:47:00;7.40;;;1.37;;
67548;SDS011;54382;53.524;49.326;2022-08-19T06:49:29;12.52;;;1.50;;
67548;SDS011;54382;53.524;49.326;2022-08-19T06:51:56;9.45;;;1.20;;
67548;SDS011;54382;53.524;49.326;2022-08-19T06:54:23;10.32;;;1.77;;
67548;SDS011;54382;53.524;49.326;2022-08-19T06:56:51;14.57;;;1.40;;
67548;SDS011;54382;53.524;49.326;2022-08-19T06:59:19;10.45;;;1.35;;
67548;SDS011;54382;53.524;49.326;2022-08-19T07:01:52;13.30;;;1.52;;
67548;SDS011;54382;53.524;49.326;2022-08-19T07:04:22;4.20;;;1.30;;
67548;SDS011;54382;53.524;49.326;2022-08-19T07:07:00;4.70;;;0.93;;
67548;SDS011;54382;53.524;49.326;2022-08-19T07:09:36;15.20;;;2.17;;
67548;SDS011;54382;53.524;49.326;2022-08-19T07:12:05;15.23;;;1.52;;
67548;SDS011;54382;53.524;49.326;2022-08-19T07:14:34;4.70;;;1.12;;
67548;SDS011;54382;53.524;49.326;2022-08-19T07:17:03;12.90;;;1.92;;
67548;SDS011;54382;53.524;49.326;2022-08-19T07:19:34;11.50;;;1.20;;
67548;SDS011;54382;53.524;49.326;2022-08-19T07:22:03;13.02;;;1.33;;
67548;SDS011;54382;53.524;49.326;2022-08-19T07:24:32;11.98;;;1.50;;
67548;SDS011;54382;53.524;49.326;2022-08-19T07:27:00;12.20;;;0.80;;
67548;SDS011;54382;53.524;49.326;2022-08-19T07:29:29;21.55;;;1.70;;
67548;SDS011;54382;53.524;49.326;2022-08-19T07:31:59;10.43;;;1.42;;
67548;SDS011;54382;53.524;49.326;2022-08-19T07:34:27;12.27;;;1.50;;
67548;SDS011;54382;53.524;49.326;2022-08-19T07:36:56;10.15;;;1.30;;
67548;SDS011;54382;53.524;49.326;2022-08-19T07:39:24;14.90;;;1.42;;
67548;SDS011;54382;53.524;49.326;2022-08-19T07:41:56;9.43;;;1.30;;
67548;SDS011;54382;53.524;49.326;2022-08-19T07:44:24;29.77;;;2.22;;
67548;SDS011;54382;53.524;49.326;2022-08-19T07:46:52;6.97;;;1.40;;
67548;SDS011;54382;53.524;49.326;2022-08-19T07:49:21;6.00;;;0.93;;
67548;SDS011;54382;53.524;49.326;2022-08-19T07:51:51;5.03;;;1.08;;
67548;SDS011;54382;53.524;49.326;2022-08-19T07:54:22;16.00;;;1.48;;
67548;SDS011;54382;53.524;49.326;2022-08-19T07:56:50;18.25;;;1.65;;
67548;SDS011;54382;53.524;49.326;2022-08-19T07:59:18;15.88;;;1.75;;
67548;SDS011;54382;53.524;49.326;2022-08-19T08:01:49;10.45;;;1.12;;
67548;SDS011;54382;53.524;49.326;2022-08-19T08:04:17;20.20;;;1.42;;
67548;SDS011;54382;53.524;49.326;2022-08-19T08:07:14;14.00;;;1.30;;
67548;SDS011;54382;53.524;49.326;2022-08-19T08:09:59;13.10;;;1.50;;
67548;SDS011;54382;53.524;49.326;2022-08-19T08:12:28;9.93;;;1.10;;
67548;SDS011;54382;53.524;49.326;2022-08-19T08:15:05;6.87;;;1.08;;
67548;SDS011;54382;53.524;49.326;2022-08-19T08:17:36;10.77;;;1.00;;
67548;SDS011;54382;53.524;49.326;2022-08-19T08:20:04;19.00;;;1.40;;
67548;SDS011;54382;53.524;49.326;2022-08-19T08:22:33;10.02;;;1.12;;
67548;SDS011;54382;53.524;49.326;2022-08-19T08:25:19;9.25;;;0.98;;
67548;SDS011;54382;53.524;49.326;2022-08-19T08:27:48;8.60;;;1.08;;
67548;SDS011;54382;53.524;49.326;2022-08-19T08:30:19;46.03;;;3.28;;
67548;SDS011;54382;53.524;49.326;2022-08-19T08:32:49;13.60;;;1.40;;
67548;SDS011;54382;53.524;49.326;2022-08-19T08:35:18;18.40;;;2.12;;
67548;SDS011;54382;53.524;49.326;2022-08-19T08:37:48;7.30;;;1.03;;
67548;SDS011;54382;53.524;49.326;2022-08-19T08:40:28;24.63;;;2.53;;
67548;SDS011;54382;53.524;49.326;2022-08-19T08:46:06;16.10;;;1.37;;
67548;SDS011;54382;53.524;49.326;2022-08-19T08:48:46;6.07;;;1.15;;
67548;SDS011;54382;53.524;49.326;2022-08-19T08:52:03;5.28;;;1.10;;
67548;SDS011;54382;53.524;49.326;2022-08-19T08:54:37;7.53;;;0.93;;
67548;SDS011;54382;53.524;49.326;2022-08-19T08:57:14;8.75;;;1.17;;
67548;SDS011;54382;53.524;49.326;2022-08-19T09:00:04;5.05;;;1.12;;
67548;SDS011;54382;53.524;49.326;2022-08-19T09:02:36;21.52;;;1.87;;
67548;SDS011;54382;53.524;49.326;2022-08-19T09:05:03;9.65;;;1.20;;
67548;SDS011;54382;53.524;49.326;2022-08-19T09:10:38;15.15;;;1.48;;
67548;SDS011;54382;53.524;49.326;2022-08-19T09:13:34;15.13;;;1.20;;
67548;SDS011;54382;53.524;49.326;2022-08-19T09:16:20;11.27;;;1.20;;
67548;SDS011;54382;53.524;49.326;2022-08-19T09:18:54;19.30;;;1.42;;
67548;SDS011;54382;53.524;49.326;2022-08-19T09:21:24;6.68;;;1.10;;
67548;SDS011;54382;53.524;49.326;2022-08-19T09:23:52;13.95;;;1.08;;
67548;SDS011;54382;53.524;49.326;2022-08-19T09:26:23;6.00;;;1.00;;
67548;SDS011;54382;53.524;49.326;2022-08-19T09:28:51;5.03;;;0.93;;
67548;SDS011;54382;53.524;49.326;2022-08-19T09:31:21;6.82;;;0.85;;
67548;SDS011;54382;53.524;49.326;2022-08-19T09:33:51;14.87;;;1.35;;
67548;SDS011;54382;53.524;49.326;2022-08-19T09:36:22;67.82;;;3.53;;
67548;SDS011;54382;53.524;49.326;2022-08-19T09:38:52;7.50;;;0.90;;
67548;SDS011;54382;53.524;49.326;2022-08-19T09:41:19;15.15;;;1.30;;
67548;SDS011;54382;53.524;49.326;2022-08-19T09:43:51;14.40;;;2.05;;
67548;SDS011;54382;53.524;49.326;2022-08-19T09:46:23;13.10;;;1.30;;
67548;SDS011;54382;53.524;49.326;2022-08-19T09:48:53;14.27;;;1.25;;
67548;SDS011;54382;53.524;49.326;2022-08-19T09:51:23;8.10;;;1.00;;
67548;SDS011;54382;53.524;49.326;2022-08-19T09:53:53;14.18;;;1.15;;
67548;SDS011;54382;53.524;49.326;2022-08-19T09:56:24;6.73;;;1.10;;
67548;SDS011;54382;53.524;49.326;2022-08-19T09:58:50;14.43;;;1.20;;
67548;SDS011;54382;53.524;49.326;2022-08-19T10:01:28;12.80;;;1.40;;
67548;SDS011;54382;53.524;49.326;2022-08-19T10:03:57;14.80;;;1.30;;
67548;SDS011;54382;53.524;49.326;2022-08-19T10:06:25;9.05;;;1.58;;
67548;SDS011;54382;53.524;49.326;2022-08-19T10:08:58;14.38;;;0.95;;
67548;SDS011;54382;53.524;49.326;2022-08-19T10:11:25;19.08;;;1.25;;
67548;SDS011;54382;53.524;49.326;2022-08-19T10:13:53;9.63;;;1.17;;
67548;SDS011;54382;53.524;49.326;2022-08-19T10:16:21;4.25;;;0.62;;
67548;SDS011;54382;53.524;49.326;2022-08-19T10:18:50;13.27;;;1.30;;
67548;SDS011;54382;53.524;49.326;2022-08-19T10:21:19;8.65;;;1.10;;
67548;SDS011;54382;53.524;49.326;2022-08-19T10:23:54;8.90;;;1.12;;
67548;SDS011;54382;53.524;49.326;2022-08-19T10:26:25;12.95;;;1.60;;
67548;SDS011;54382;53.524;49.326;2022-08-19T10:28:55;8.25;;;0.90;;
67548;SDS011;54382;53.524;49.326;2022-08-19T10:31:27;12.68;;;1.10;;
67548;SDS011;54382;53.524;49.326;2022-08-19T10:33:56;18.60;;;1.20;;
67548;SDS011;54382;53.524;49.326;2022-08-19T10:36:24;15.43;;;1.10;;
67548;SDS011;54382;53.524;49.326;2022-08-19T10:38:58;9.75;;;1.37;;
67548;SDS011;54382;53.524;49.326;2022-08-19T10:41:29;10.70;;;0.98;;
67548;SDS011;54382;53.524;49.326;2022-08-19T10:44:03;9.32;;;1.35;;
67548;SDS011;54382;53.524;49.326;2022-08-19T10:46:41;12.18;;;0.95;;
67548;SDS011;54382;53.524;49.326;2022-08-19T10:49:13;7.50;;;0.90;;
67548;SDS011;54382;53.524;49.326;2022-08-19T10:51:40;7.65;;;1.10;;
67548;SDS011;54382;53.524;49.326;2022-08-19T10:54:25;6.68;;;1.15;;
67548;SDS011;54382;53.524;49.326;2022-08-19T10:57:13;3.92;;;0.70;;
67548;SDS011;54382;53.524;49.326;2022-08-19T10:59:41;44.60;;;1.75;;
67548;SDS011;54382;53.524;49.326;2022-08-19T11:02:08;11.57;;;1.10;;
67548;SDS011;54382;53.524;49.326;2022-08-19T11:04:37;1.73;;;0.55;;
67548;SDS011;54382;53.524;49.326;2022-08-19T11:07:05;14.50;;;1.10;;
67548;SDS011;54382;53.524;49.326;2022-08-19T11:09:36;10.02;;;0.93;;
67548;SDS011;54382;53.524;49.326;2022-08-19T11:12:07;10.90;;;1.08;;
67548;SDS011;54382;53.524;49.326;2022-08-19T11:14:35;11.90;;;1.08;;
67548;SDS011;54382;53.524;49.326;2022-08-19T11:17:03;8.68;;;0.95;;
67548;SDS011;54382;53.524;49.326;2022-08-19T11:19:31;7.80;;;1.15;;
67548;SDS011;54382;53.524;49.326;2022-08-19T11:21:58;15.52;;;1.30;;
67548;SDS011;54382;53.524;49.326;2022-08-19T11:24:27;6.20;;;0.70;;
67548;SDS011;54382;53.524;49.326;2022-08-19T11:26:54;8.52;;;1.20;;
67548;SDS011;54382;53.524;49.326;2022-08-19T11:29:29;14.05;;;1.15;;
67548;SDS011;54382;53.524;49.326;2022-08-19T11:31:57;8.38;;;1.05;;
67548;SDS011;54382;53.524;49.326;2022-08-19T11:34:28;3.78;;;0.90;;
67548;SDS011;54382;53.524;49.326;2022-08-19T11:36:56;7.82;;;0.90;;
67548;SDS011;54382;53.524;49.326;2022-08-19T11:39:24;14.85;;;1.20;;
67548;SDS011;54382;53.524;49.326;2022-08-19T11:41:52;2.05;;;0.68;;
67548;SDS011;54382;53.524;49.326;2022-08-19T11:44:19;4.32;;;0.45;;
67548;SDS011;54382;53.524;49.326;2022-08-19T11:46:46;16.15;;;1.40;;
67548;SDS011;54382;53.524;49.326;2022-08-19T11:49:17;2.45;;;0.43;;
67548;SDS011;54382;53.524;49.326;2022-08-19T11:51:47;4.47;;;0.93;;
67548;SDS011;54382;53.524;49.326;2022-08-19T11:54:16;6.85;;;1.02;;
67548;SDS011;54382;53.524;49.326;2022-08-19T11:56:43;18.45;;;1.00;;
67548;SDS011;54382;53.524;49.326;2022-08-19T11:59:11;5.22;;;1.00;;
67548;SDS011;54382;53.524;49.326;2022-08-19T12:01:39;4.90;;;0.70;;
67548;SDS011;54382;53.524;49.326;2022-08-19T12:04:07;3.42;;;0.60;;
67548;SDS011;54382;53.524;49.326;2022-08-19T12:06:36;6.03;;;1.00;;
67548;SDS011;54382;53.524;49.326;2022-08-19T12:09:07;7.75;;;1.10;;
67548;SDS011;54382;53.524;49.326;2022-08-19T12:11:34;1.20;;;0.40;;
67548;SDS011;54382;53.524;49.326;2022-08-19T12:14:03;8.77;;;0.88;;
67548;SDS011;54382;53.524;49.326;2022-08-19T12:16:51;5.70;;;0.80;;
67548;SDS011;54382;53.524;49.326;2022-08-19T12:20:17;10.38;;;0.93;;
67548;SDS011;54382;53.524;49.326;2022-08-19T12:22:44;6.00;;;1.33;;
67548;SDS011;54382;53.524;49.326;2022-08-19T12:25:11;6.30;;;1.00;;
67548;SDS011;54382;53.524;49.326;2022-08-19T12:27:38;6.47;;;1.02;;
67548;SDS011;54382;53.524;49.326;2022-08-19T12:30:05;8.30;;;1.15;;
67548;SDS011;54382;53.524;49.326;2022-08-19T12:32:36;11.73;;;1.35;;
67548;SDS011;54382;53.524;49.326;2022-08-19T12:35:04;5.75;;;0.80;;
67548;SDS011;54382;53.524;49.326;2022-08-19T12:37:32;3.58;;;0.80;;
67548;SDS011;54382;53.524;49.326;2022-08-19T12:39:59;6.37;;;0.52;;
67548;SDS011;54382;53.524;49.326;2022-08-19T12:42:26;1.27;;;0.62;;
67548;SDS011;54382;53.524;49.326;2022-08-19T12:44:53;4.47;;;0.90;;
67548;SDS011;54382;53.524;49.326;2022-08-19T12:47:20;3.12;;;0.75;;
67548;SDS011;54382;53.524;49.326;2022-08-19T12:49:47;3.90;;;0.60;;
67548;SDS011;54382;53.524;49.326;2022-08-19T12:52:14;6.93;;;0.77;;
67548;SDS011;54382;53.524;49.326;2022-08-19T12:54:41;12.05;;;1.20;;
67548;SDS011;54382;53.524;49.326;2022-08-19T12:57:09;10.13;;;1.30;;
67548;SDS011;54382;53.524;49.326;2022-08-19T12:59:36;13.50;;;1.00;;
67548;SDS011;54382;53.524;49.326;2022-08-19T13:02:05;11.35;;;1.00;;
67548;SDS011;54382;53.524;49.326;2022-08-19T13:04:33;0.98;;;0.32;;
67548;SDS011;54382;53.524;49.326;2022-08-19T13:07:02;7.32;;;0.85;;
67548;SDS011;54382;53.524;49.326;2022-08-19T13:09:28;5.78;;;0.90;;
67548;SDS011;54382;53.524;49.326;2022-08-19T13:11:55;6.35;;;0.75;;
67548;SDS011;54382;53.524;49.326;2022-08-19T13:14:22;22.98;;;1.50;;
67548;SDS011;54382;53.524;49.326;2022-08-19T13:16:48;6.45;;;1.20;;
67548;SDS011;54382;53.524;49.326;2022-08-19T13:19:15;7.50;;;0.80;;
67548;SDS011;54382;53.524;49.326;2022-08-19T13:21:48;6.90;;;0.95;;
67548;SDS011;54382;53.524;49.326;2022-08-19T13:24:17;14.38;;;1.10;;
67548;SDS011;54382;53.524;49.326;2022-08-19T13:26:44;7.78;;;0.90;;
67548;SDS011;54382;53.524;49.326;2022-08-19T13:29:10;11.88;;;1.00;;
67548;SDS011;54382;53.524;49.326;2022-08-19T13:31:55;7.20;;;0.90;;
67548;SDS011;54382;53.524;49.326;2022-08-19T13:34:40;3.42;;;0.80;;
67548;SDS011;54382;53.524;49.326;2022-08-19T13:37:07;11.60;;;0.75;;
67548;SDS011;54382;53.524;49.326;2022-08-19T13:39:34;6.37;;;1.05;;
67548;SDS011;54382;53.524;49.326;2022-08-19T13:42:02;10.00;;;0.98;;
67548;SDS011;54382;53.524;49.326;2022-08-19T13:44:30;11.02;;;1.00;;
67548;SDS011;54382;53.524;49.326;2022-08-19T13:47:04;2.90;;;0.70;;
67548;SDS011;54382;53.524;49.326;2022-08-19T13:49:32;12.35;;;1.00;;
67548;SDS011;54382;53.524;49.326;2022-08-19T13:52:02;11.30;;;1.00;;
67548;SDS011;54382;53.524;49.326;2022-08-19T13:54:30;7.72;;;1.40;;
67548;SDS011;54382;53.524;49.326;2022-08-19T13:56:57;8.27;;;0.88;;
67548;SDS011;54382;53.524;49.326;2022-08-19T13:59:24;8.18;;;1.20;;
67548;SDS011;54382;53.524;49.326;2022-08-19T14:01:51;14.98;;;1.10;;
67548;SDS011;54382;53.524;49.326;2022-08-19T14:04:18;7.65;;;0.98;;
67548;SDS011;54382;53.524;49.326;2022-08-19T14:06:45;2.33;;;0.60;;
67548;SDS011;54382;53.524;49.326;2022-08-19T14:09:11;8.63;;;0.93;;
67548;SDS011;54382;53.524;49.326;2022-08-19T14:11:38;6.40;;;1.02;;
67548;SDS011;54382;53.524;49.326;2022-08-19T14:14:04;5.22;;;0.90;;
67548;SDS011;54382;53.524;49.326;2022-08-19T14:16:31;10.27;;;1.00;;
67548;SDS011;54382;53.524;49.326;2022-08-19T14:18:58;4.53;;;0.70;;
67548;SDS011;54382;53.524;49.326;2022-08-19T14:21:24;9.93;;;1.10;;
67548;SDS011;54382;53.524;49.326;2022-08-19T14:23:51;4.60;;;0.90;;
67548;SDS011;54382;53.524;49.326;2022-08-19T14:26:19;7.95;;;1.23;;
67548;SDS011;54382;53.524;49.326;2022-08-19T14:28:49;4.95;;;0.98;;
67548;SDS011;54382;53.524;49.326;2022-08-19T14:31:17;8.43;;;0.73;;
67548;SDS011;54382;53.524;49.326;2022-08-19T14:33:46;9.95;;;0.93;;
67548;SDS011;54382;53.524;49.326;2022-08-19T14:36:13;6.12;;;1.15;;
67548;SDS011;54382;53.524;49.326;2022-08-19T14:38:40;5.60;;;1.23;;
67548;SDS011;54382;53.524;49.326;2022-08-19T14:41:12;17.23;;;1.10;;
67548;SDS011;54382;53.524;49.326;2022-08-19T14:43:47;8.65;;;1.10;;
67548;SDS011;54382;53.524;49.326;2022-08-19T14:46:16;4.18;;;1.10;;
67548;SDS011;54382;53.524;49.326;2022-08-19T14:48:47;9.68;;;1.15;;
67548;SDS011;54382;53.524;49.326;2022-08-19T14:51:15;7.82;;;1.10;;
67548;SDS011;54382;53.524;49.326;2022-08-19T14:53:42;16.23;;;1.30;;
67548;SDS011;54382;53.524;49.326;2022-08-19T14:56:10;11.23;;;0.98;;